Time;durP1;ratioP1;P1;durP2;ratioP2;P2;SDS_P1;SDS_P2;PMS_P1;PMS_P2;Temp;Humidity;BMP_temperature;BMP_pressure;BME280_temperature;BME280_humidity;BME280_pressure;Samples;Min_cycle;Max_cycle;Signal;HPM_P1;HPM_P2
2023/12/04 00:02:09;;;;;;;1550.00;999.90;;;26.40;99.90;;;;;;5014515;28;20053;-73
2023/12/04 00:04:41;;;;;;;1547.53;999.90;;;26.40;99.90;;;;;;5018409;28;20037;-71
2023/12/04 00:07:07;;;;;;;1528.07;999.90;;;26.40;99.90;;;;;;5024179;28;20022;-71
2023/12/04 00:09:34;;;;;;;1558.88;999.90;;;26.30;99.90;;;;;;5019132;28;20021;-71
2023/12/04 00:12:00;;;;;;;1554.20;999.90;;;26.30;99.90;;;;;;5033857;28;20098;-71
2023/12/04 00:14:27;;;;;;;1575.47;999.90;;;26.20;99.90;;;;;;5033883;28;20017;-72
2023/12/04 00:16:53;;;;;;;1564.03;999.90;;;26.20;99.90;;;;;;5031636;28;20021;-71
2023/12/04 00:19:20;;;;;;;1563.45;999.90;;;26.30;99.90;;;;;;5014294;28;20388;-70
2023/12/04 00:21:46;;;;;;;1558.15;999.90;;;26.20;99.90;;;;;;5014205;28;20129;-70
2023/12/04 00:24:13;;;;;;;1551.10;999.90;;;26.20;99.90;;;;;;5013926;28;20025;-72
2023/12/04 00:26:40;;;;;;;1536.28;999.90;;;26.20;99.90;;;;;;5014231;28;20443;-69
2023/12/04 00:29:07;;;;;;;1513.32;999.90;;;26.20;99.90;;;;;;5014152;28;20080;-71
2023/12/04 00:31:33;;;;;;;1522.18;999.90;;;26.20;99.90;;;;;;5031279;28;20376;-71
2023/12/04 00:34:00;;;;;;;1536.25;999.90;;;26.30;99.90;;;;;;5033439;28;20464;-71
2023/12/04 00:36:27;;;;;;;1528.95;999.90;;;26.30;99.90;;;;;;5020166;28;20030;-70
2023/12/04 00:38:53;;;;;;;1519.97;999.90;;;26.30;99.90;;;;;;5013789;28;20096;-70
2023/12/04 00:41:20;;;;;;;1522.65;999.90;;;26.40;99.90;;;;;;5013559;28;20037;-71
2023/12/04 00:43:46;;;;;;;1533.28;999.90;;;26.40;99.90;;;;;;5013710;28;20380;-70
2023/12/04 00:46:13;;;;;;;1525.25;999.90;;;26.30;99.90;;;;;;5013607;28;20025;-71
2023/12/04 00:48:39;;;;;;;1494.75;999.90;;;26.30;99.90;;;;;;5013314;28;20495;-69
2023/12/04 00:51:06;;;;;;;1533.78;999.90;;;26.30;99.90;;;;;;5013602;28;20041;-71
2023/12/04 00:53:33;;;;;;;1500.18;999.90;;;26.40;99.90;;;;;;5013409;28;20472;-70
2023/12/04 00:56:00;;;;;;;1509.78;999.90;;;26.40;99.90;;;;;;5013508;28;20084;-70
2023/12/04 00:58:26;;;;;;;1508.60;999.90;;;26.50;99.90;;;;;;5013484;28;20104;-72
2023/12/04 01:00:53;;;;;;;1536.82;999.90;;;26.50;99.90;;;;;;5013415;28;20026;-71
2023/12/04 01:03:19;;;;;;;1543.25;999.90;;;26.60;99.90;;;;;;5013827;28;20444;-71
2023/12/04 01:05:46;;;;;;;1509.93;999.90;;;26.60;99.90;;;;;;5013482;28;20018;-72
2023/12/04 01:08:12;;;;;;;1525.15;999.90;;;26.60;99.90;;;;;;5013587;28;20069;-72
2023/12/04 01:10:40;;;;;;;1568.13;999.90;;;26.70;99.90;;;;;;5013410;28;20060;-72
2023/12/04 01:13:06;;;;;;;1559.20;999.90;;;26.70;99.90;;;;;;5013502;28;20022;-72
2023/12/04 01:15:33;;;;;;;1553.47;999.90;;;26.70;99.90;;;;;;5014769;28;20026;-72
2023/12/04 01:18:00;;;;;;;1556.78;999.90;;;26.60;99.90;;;;;;5017339;28;20495;-72
2023/12/04 01:20:27;;;;;;;1543.90;999.90;;;26.60;99.90;;;;;;5017222;28;20021;-72
2023/12/04 01:22:53;;;;;;;1561.00;999.90;;;26.70;99.90;;;;;;5017263;28;20022;-73
2023/12/04 01:25:20;;;;;;;1559.82;999.90;;;26.70;99.90;;;;;;5017307;28;20022;-73
2023/12/04 01:27:46;;;;;;;1536.35;999.90;;;26.70;99.90;;;;;;5017138;28;20381;-72
2023/12/04 01:30:13;;;;;;;1559.10;999.90;;;26.70;99.90;;;;;;5018838;28;20030;-73
2023/12/04 01:32:40;;;;;;;1556.07;999.90;;;26.70;99.90;;;;;;5040819;28;20143;-72
2023/12/04 01:35:07;;;;;;;1553.70;999.90;;;26.70;99.90;;;;;;5036797;28;20028;-72
2023/12/04 01:37:33;;;;;;;1561.28;999.90;;;26.80;99.90;;;;;;5036767;28;20021;-70
2023/12/04 01:40:00;;;;;;;1570.20;999.90;;;26.80;99.90;;;;;;5036674;28;20036;-70
2023/12/04 01:42:27;;;;;;;1553.90;999.90;;;26.90;99.90;;;;;;5036630;28;20032;-70
2023/12/04 01:44:53;;;;;;;1569.60;999.90;;;26.90;99.90;;;;;;5036583;28;20076;-70
2023/12/04 01:47:20;;;;;;;1567.40;999.90;;;26.90;99.90;;;;;;5036781;28;20424;-72
2023/12/04 01:49:46;;;;;;;1577.80;999.90;;;26.90;99.90;;;;;;5036713;28;20045;-68
2023/12/04 01:52:13;;;;;;;1582.45;999.90;;;26.90;99.90;;;;;;5036635;28;20021;-71
2023/12/04 01:54:39;;;;;;;1561.22;999.90;;;26.90;99.90;;;;;;5036440;28;20031;-70
2023/12/04 01:57:07;;;;;;;1572.57;999.90;;;27.00;99.90;;;;;;5036314;28;20100;-69
2023/12/04 01:59:34;;;;;;;1577.03;999.90;;;27.00;99.90;;;;;;5036329;28;20064;-68
2023/12/04 02:02:02;;;;;;;1582.28;999.90;;;27.00;99.90;;;;;;5036376;28;20032;-69
2023/12/04 02:04:28;;;;;;;1569.93;999.90;;;27.00;99.90;;;;;;5036352;28;20048;-69
2023/12/04 02:06:55;;;;;;;1549.97;999.90;;;27.10;99.90;;;;;;5030378;28;20080;-70
2023/12/04 02:09:22;;;;;;;1568.40;999.90;;;27.20;99.90;;;;;;5029626;28;20032;-67
2023/12/04 02:11:48;;;;;;;1577.70;999.90;;;27.20;99.90;;;;;;5024200;28;20125;-67
2023/12/04 02:14:15;;;;;;;1571.32;999.90;;;27.30;99.90;;;;;;5016389;28;20593;-66
2023/12/04 02:16:43;;;;;;;1574.82;999.90;;;27.40;99.90;;;;;;5039532;28;20021;-65
2023/12/04 02:19:12;;;;;;;1580.07;999.90;;;27.40;99.90;;;;;;5055638;28;20025;-65
2023/12/04 02:21:39;;;;;;;1613.45;999.90;;;27.50;99.90;;;;;;5047283;28;20072;-65
2023/12/04 02:24:06;;;;;;;1645.15;999.90;;;27.60;99.90;;;;;;5044818;28;20394;-68
2023/12/04 02:26:40;;;;;;;1592.30;999.90;;;27.60;99.90;;;;;;5045883;28;20074;-64
2023/12/04 02:29:11;;;;;;;1568.10;999.90;;;27.70;99.90;;;;;;5046124;28;20476;-66
2023/12/04 02:31:40;;;;;;;1556.40;999.90;;;27.70;99.90;;;;;;5042143;28;20044;-67
2023/12/04 02:34:08;;;;;;;1566.80;999.90;;;27.80;99.90;;;;;;5044808;28;20021;-67
2023/12/04 02:36:36;;;;;;;1583.43;999.90;;;27.80;99.90;;;;;;5046272;28;20024;-67
2023/12/04 02:39:03;;;;;;;1546.72;999.90;;;27.80;99.90;;;;;;5045109;28;20029;-68
2023/12/04 02:41:29;;;;;;;1545.57;999.90;;;27.90;99.90;;;;;;5044288;28;20021;-69
2023/12/04 02:43:56;;;;;;;1568.32;999.90;;;27.90;99.90;;;;;;5041484;28;20448;-69
2023/12/04 02:46:23;;;;;;;1547.25;999.90;;;28.00;99.90;;;;;;5045352;28;20071;-69
2023/12/04 02:48:49;;;;;;;1551.03;999.90;;;28.10;99.90;;;;;;5045788;28;20087;-70
2023/12/04 02:51:16;;;;;;;1570.75;999.90;;;28.10;99.90;;;;;;5044232;28;20033;-67
2023/12/04 02:53:42;;;;;;;1583.35;999.90;;;28.20;99.90;;;;;;5045141;28;20521;-68
2023/12/04 02:56:09;;;;;;;1574.53;999.90;;;28.20;99.90;;;;;;5045582;28;20090;-69
2023/12/04 02:58:36;;;;;;;1570.13;999.90;;;28.30;99.90;;;;;;5041121;28;20079;-67
2023/12/04 03:01:02;;;;;;;1567.05;999.90;;;28.40;99.90;;;;;;5044753;28;20036;-68
2023/12/04 03:03:29;;;;;;;1569.03;999.90;;;28.40;99.90;;;;;;5045530;28;20047;-68
2023/12/04 03:05:56;;;;;;;1549.97;999.90;;;28.40;99.90;;;;;;5043816;28;20019;-67
2023/12/04 03:08:22;;;;;;;1560.47;999.90;;;28.50;99.90;;;;;;5044929;28;20025;-67
2023/12/04 03:10:49;;;;;;;1569.80;999.90;;;28.50;99.90;;;;;;5044960;28;20049;-67
2023/12/04 03:13:15;;;;;;;1559.05;999.90;;;28.60;99.90;;;;;;5043542;28;20022;-67
2023/12/04 03:15:42;;;;;;;1573.53;999.90;;;28.60;99.90;;;;;;5044715;28;20020;-66
2023/12/04 03:18:08;;;;;;;1553.25;999.90;;;28.60;99.90;;;;;;5044991;28;20067;-66
2023/12/04 03:20:35;;;;;;;1569.50;999.90;;;28.70;99.90;;;;;;5043371;28;20023;-68
2023/12/04 03:23:01;;;;;;;1548.90;999.90;;;28.70;99.90;;;;;;5044664;28;20423;-68
2023/12/04 03:25:28;;;;;;;1560.20;999.90;;;28.70;99.90;;;;;;5044920;28;20049;-67
2023/12/04 03:27:54;;;;;;;1563.93;999.90;;;28.80;99.90;;;;;;5043231;28;20136;-68
2023/12/04 03:30:21;;;;;;;1563.93;999.90;;;28.80;99.90;;;;;;5044552;28;20487;-69
2023/12/04 03:32:47;;;;;;;1562.22;999.90;;;28.80;99.90;;;;;;5039834;28;20029;-67
2023/12/04 03:35:14;;;;;;;1546.15;999.90;;;28.80;99.90;;;;;;5034457;28;20026;-64
2023/12/04 03:37:40;;;;;;;1568.15;999.90;;;28.90;99.90;;;;;;5033843;28;20075;-65
2023/12/04 03:40:07;;;;;;;1552.80;999.90;;;28.90;99.90;;;;;;5044156;28;20101;-65
2023/12/04 03:42:34;;;;;;;1536.35;999.90;;;29.00;99.90;;;;;;5045521;28;20103;-65
2023/12/04 03:45:00;;;;;;;1530.80;999.90;;;29.00;99.90;;;;;;5054052;28;20369;-66
2023/12/04 03:47:27;;;;;;;1567.10;999.90;;;29.00;99.90;;;;;;5053407;28;20611;-66
2023/12/04 03:49:53;;;;;;;1569.53;999.90;;;29.00;99.90;;;;;;5052365;28;20059;-64
2023/12/04 03:52:21;;;;;;;1545.05;999.90;;;29.10;99.90;;;;;;5052862;28;20450;-65
2023/12/04 03:54:47;;;;;;;1562.78;999.90;;;29.10;99.90;;;;;;5053589;28;20033;-65
2023/12/04 03:57:14;;;;;;;1563.10;999.90;;;29.10;99.90;;;;;;5043886;28;20507;-65
2023/12/04 03:59:40;;;;;;;1554.60;999.90;;;29.10;99.90;;;;;;5043416;28;20146;-64
2023/12/04 04:02:07;;;;;;;1535.90;999.90;;;29.20;99.90;;;;;;5041614;28;20012;-65
2023/12/04 04:04:33;;;;;;;1570.10;999.90;;;29.30;99.90;;;;;;5042095;28;20009;-66
2023/12/04 04:07:00;;;;;;;1542.95;999.90;;;29.40;99.90;;;;;;5036489;28;20404;-64
2023/12/04 04:09:26;;;;;;;1564.78;999.90;;;29.40;99.90;;;;;;5045022;28;20032;-63
2023/12/04 04:11:53;;;;;;;1495.78;999.90;;;29.40;99.90;;;;;;5043163;28;20188;-63
2023/12/04 04:14:19;;;;;;;1554.88;999.90;;;29.50;99.90;;;;;;5043252;28;20064;-64
2023/12/04 04:16:46;;;;;;;1570.55;999.90;;;29.50;99.90;;;;;;5044599;28;20035;-64
2023/12/04 04:19:12;;;;;;;1561.63;999.90;;;29.50;99.90;;;;;;5043174;28;20468;-64
2023/12/04 04:21:40;;;;;;;1568.13;999.90;;;29.60;99.90;;;;;;5043393;28;20186;-63
2023/12/04 04:24:07;;;;;;;1564.22;999.90;;;29.70;99.90;;;;;;5044671;28;20494;-65
2023/12/04 04:26:34;;;;;;;1563.43;999.90;;;29.70;99.90;;;;;;5043244;28;20013;-64
2023/12/04 04:29:00;;;;;;;1570.20;999.90;;;29.80;99.90;;;;;;5043098;28;20055;-65
2023/12/04 04:31:27;;;;;;;1558.63;999.90;;;29.80;99.90;;;;;;5044524;28;20041;-63
2023/12/04 04:33:53;;;;;;;1538.40;999.90;;;29.80;99.90;;;;;;5042913;28;20067;-66
2023/12/04 04:36:20;;;;;;;1570.57;999.90;;;29.80;99.90;;;;;;5043272;28;20588;-66
2023/12/04 04:38:46;;;;;;;1538.88;999.90;;;29.90;99.90;;;;;;5044605;28;20025;-67
2023/12/04 04:41:16;;;;;;;1561.28;999.90;;;29.80;99.90;;;;;;5042796;28;20471;-64
2023/12/04 04:43:43;;;;;;;1537.20;999.90;;;29.80;99.90;;;;;;5042359;28;20486;-66
2023/12/04 04:46:10;;;;;;;1542.28;999.90;;;29.80;99.90;;;;;;5039995;28;20104;-65
2023/12/04 04:48:36;;;;;;;1559.63;999.90;;;29.90;99.90;;;;;;5043054;28;20013;-63
2023/12/04 04:51:03;;;;;;;1560.82;999.90;;;30.00;99.90;;;;;;5043478;28;20021;-65
2023/12/04 04:53:30;;;;;;;1557.03;999.90;;;29.90;99.90;;;;;;5039897;28;20033;-65
2023/12/04 04:55:56;;;;;;;1559.82;999.90;;;29.90;99.90;;;;;;5043245;28;20027;-68
2023/12/04 04:58:23;;;;;;;1553.28;999.90;;;29.90;99.90;;;;;;5043977;28;20018;-68
2023/12/04 05:00:49;;;;;;;1540.18;999.90;;;30.00;99.90;;;;;;5039619;28;20025;-70
2023/12/04 05:03:16;;;;;;;1524.28;999.90;;;30.00;99.90;;;;;;5043504;28;20475;-70
2023/12/04 05:05:43;;;;;;;1526.07;999.90;;;30.00;99.90;;;;;;5049795;28;20021;-71
2023/12/04 05:08:09;;;;;;;1491.90;999.90;;;30.00;99.90;;;;;;5053727;28;20455;-69
2023/12/04 05:10:37;;;;;;;1522.97;999.90;;;30.00;99.90;;;;;;5053541;28;20037;-70
2023/12/04 05:13:04;;;;;;;1524.47;999.90;;;30.00;99.90;;;;;;5053336;28;20021;-71
2023/12/04 05:15:30;;;;;;;1533.50;999.90;;;30.00;99.90;;;;;;5053602;28;20033;-67
2023/12/04 05:17:57;;;;;;;1545.13;999.90;;;30.00;99.90;;;;;;5053529;28;20507;-70
2023/12/04 05:20:23;;;;;;;1544.65;999.90;;;30.00;99.90;;;;;;5034675;28;20037;-70
2023/12/04 05:22:50;;;;;;;1495.30;999.90;;;30.00;99.90;;;;;;5036395;28;20051;-72
2023/12/04 05:25:17;;;;;;;1518.45;999.90;;;30.00;99.90;;;;;;5043917;28;20029;-68
2023/12/04 05:27:43;;;;;;;1553.32;999.90;;;30.00;99.90;;;;;;5040151;28;20018;-69
2023/12/04 05:30:10;;;;;;;1554.18;999.90;;;30.00;99.90;;;;;;5042293;28;20068;-67
2023/12/04 05:32:37;;;;;;;1564.10;999.90;;;30.10;99.90;;;;;;5041882;28;20033;-66
2023/12/04 05:35:03;;;;;;;1557.80;999.90;;;30.10;99.90;;;;;;5038154;28;20022;-71
2023/12/04 05:37:30;;;;;;;1559.72;999.90;;;30.10;99.90;;;;;;5036902;28;20390;-65
2023/12/04 05:40:52;;;;;;;1554.68;999.90;;;30.10;99.90;;;;;;5049987;28;20193;-67
2023/12/04 05:43:19;;;;;;;1536.70;999.90;;;30.10;99.90;;;;;;5032748;28;20026;-65
2023/12/04 05:45:45;;;;;;;1527.90;999.90;;;30.10;99.90;;;;;;5039664;28;20492;-68
2023/12/04 05:48:12;;;;;;;1528.88;999.90;;;30.10;99.90;;;;;;5042092;28;20494;-68
2023/12/04 05:50:38;;;;;;;1549.50;999.90;;;30.10;99.90;;;;;;5043551;28;20380;-67
2023/12/04 05:53:07;;;;;;;1465.97;999.90;;;30.10;99.90;;;;;;5041746;28;20108;-66
2023/12/04 05:55:34;;;;;;;1446.00;999.90;;;30.10;99.90;;;;;;5043581;28;20119;-67
2023/12/04 05:58:00;;;;;;;1526.40;999.90;;;30.10;99.90;;;;;;5041931;28;20477;-70
2023/12/04 06:00:27;;;;;;;1536.43;999.90;;;30.10;99.90;;;;;;5041840;28;20021;-67
2023/12/04 06:02:53;;;;;;;1523.78;999.90;;;30.10;99.90;;;;;;5046826;28;20017;-67
2023/12/04 06:05:20;;;;;;;1462.20;999.90;;;30.10;99.90;;;;;;5041772;28;20138;-65
2023/12/04 06:07:47;;;;;;;1541.13;999.90;;;30.20;99.90;;;;;;5046685;28;20464;-65
2023/12/04 06:10:13;;;;;;;1531.40;999.90;;;30.20;99.90;;;;;;5044651;28;20063;-65
2023/12/04 06:12:40;;;;;;;1544.28;999.90;;;30.20;99.90;;;;;;5046848;28;20033;-67
2023/12/04 06:15:07;;;;;;;1513.32;999.90;;;30.20;99.90;;;;;;5046098;28;20376;-68
2023/12/04 06:17:33;;;;;;;1538.97;999.90;;;30.20;99.90;;;;;;5053228;28;20091;-68
2023/12/04 06:20:00;;;;;;;1504.32;999.90;;;30.20;99.90;;;;;;5045087;28;20108;-65
2023/12/04 06:22:27;;;;;;;1485.35;999.90;;;30.20;99.90;;;;;;5045109;28;20415;-65
2023/12/04 06:24:54;;;;;;;1536.60;999.90;;;30.20;99.90;;;;;;5045208;28;20506;-67
2023/12/04 06:27:20;;;;;;;1508.07;999.90;;;30.20;99.90;;;;;;5046658;28;20059;-67
2023/12/04 06:29:48;;;;;;;1523.57;999.90;;;30.20;99.90;;;;;;5045090;28;20025;-67
2023/12/04 06:32:16;;;;;;;1508.93;999.90;;;30.20;99.90;;;;;;5044870;28;20544;-67
2023/12/04 06:34:42;;;;;;;1522.38;999.90;;;30.20;99.90;;;;;;5041602;28;20029;-65
2023/12/04 06:37:11;;;;;;;1500.07;999.90;;;30.20;99.90;;;;;;5045699;28;20059;-67
2023/12/04 06:39:39;;;;;;;1510.22;999.90;;;30.20;99.90;;;;;;5046526;28;20029;-67
2023/12/04 06:42:09;;;;;;;1437.50;999.90;;;30.20;99.90;;;;;;5044897;28;20022;-68
2023/12/04 06:44:36;;;;;;;1527.57;999.90;;;30.20;99.90;;;;;;5044379;28;20031;-66
2023/12/04 06:47:03;;;;;;;1500.80;999.90;;;30.30;99.90;;;;;;5043838;28;20032;-65
2023/12/04 06:49:32;;;;;;;1516.05;999.90;;;30.30;99.90;;;;;;5044494;28;20033;-67
2023/12/04 06:52:01;;;;;;;1510.75;999.90;;;30.30;99.90;;;;;;5044527;28;20025;-64
2023/12/04 06:54:28;;;;;;;1528.32;999.90;;;30.30;99.90;;;;;;5042265;28;20026;-65
2023/12/04 06:56:55;;;;;;;1560.63;999.90;;;30.20;99.90;;;;;;5053102;28;20120;-65
2023/12/04 06:59:22;;;;;;;1563.97;999.90;;;30.30;99.90;;;;;;5052337;28;20371;-64
2023/12/04 07:01:49;;;;;;;1567.93;999.90;;;30.20;99.90;;;;;;5052915;28;20017;-66
2023/12/04 07:04:20;;;;;;;1534.07;999.90;;;30.20;99.90;;;;;;5052557;28;20096;-65
2023/12/04 07:06:48;;;;;;;1483.80;999.90;;;30.20;99.90;;;;;;5052440;28;20029;-68
2023/12/04 07:09:15;;;;;;;1534.40;999.90;;;30.20;99.90;;;;;;5052481;28;20021;-64
2023/12/04 07:11:43;;;;;;;1571.55;999.90;;;30.20;99.90;;;;;;5051822;28;20044;-67
2023/12/04 07:14:10;;;;;;;1574.68;999.90;;;30.20;99.90;;;;;;5050160;28;20155;-64
2023/12/04 07:16:42;;;;;;;1568.65;999.90;;;30.20;99.90;;;;;;5045152;28;20017;-67
2023/12/04 07:19:09;;;;;;;1576.17;999.90;;;30.20;99.90;;;;;;5041644;28;20071;-66
2023/12/04 07:21:37;;;;;;;1570.72;999.90;;;30.20;99.90;;;;;;5044093;28;20044;-66
2023/12/04 07:24:04;;;;;;;1583.65;999.90;;;30.10;99.90;;;;;;5043484;28;20021;-69
2023/12/04 07:26:32;;;;;;;1587.18;999.90;;;30.10;99.90;;;;;;5041973;28;20064;-67
2023/12/04 07:28:58;;;;;;;1576.07;999.90;;;30.10;99.90;;;;;;5042620;28;20025;-66
2023/12/04 07:31:26;;;;;;;1595.13;999.90;;;30.10;99.90;;;;;;5042645;28;20024;-66
2023/12/04 07:33:56;;;;;;;1600.03;999.90;;;30.00;99.90;;;;;;5035864;28;20392;-65
2023/12/04 07:36:24;;;;;;;1595.53;999.90;;;30.10;99.90;;;;;;5035793;28;20029;-66
2023/12/04 07:38:53;;;;;;;1587.80;999.90;;;30.10;99.90;;;;;;5051521;28;20029;-67
2023/12/04 07:41:21;;;;;;;1489.97;999.90;;;30.10;99.90;;;;;;5054058;28;20480;-67
2023/12/04 07:43:48;;;;;;;1580.53;999.90;;;30.10;99.90;;;;;;5054212;28;20025;-67
2023/12/04 07:46:14;;;;;;;1594.53;999.90;;;30.00;99.90;;;;;;5054286;28;20028;-67
2023/12/04 07:48:41;;;;;;;1558.43;999.90;;;30.00;99.90;;;;;;5054009;28;20104;-67
2023/12/04 07:51:08;;;;;;;1528.45;999.90;;;30.00;99.90;;;;;;5054250;28;20024;-67
2023/12/04 07:53:34;;;;;;;1488.32;999.90;;;30.00;99.90;;;;;;5054161;28;20025;-66
2023/12/04 07:56:04;;;;;;;1595.82;999.90;;;30.00;99.90;;;;;;5054030;28;20029;-67
2023/12/04 07:58:31;;;;;;;1595.68;999.90;;;30.10;99.90;;;;;;5050420;28;20050;-68
2023/12/04 08:00:59;;;;;;;1584.97;999.90;;;30.20;99.90;;;;;;5044247;28;20526;-67
2023/12/04 08:03:25;;;;;;;1581.40;999.90;;;30.20;99.90;;;;;;5039644;28;20025;-70
2023/12/04 08:05:52;;;;;;;1582.78;999.90;;;30.20;99.90;;;;;;5039961;28;20049;-68
2023/12/04 08:08:19;;;;;;;1573.13;999.90;;;30.20;99.90;;;;;;5043434;28;20013;-65
2023/12/04 08:10:45;;;;;;;1598.15;999.90;;;30.20;99.90;;;;;;5042604;28;20511;-69
2023/12/04 08:13:12;;;;;;;1565.25;999.90;;;30.20;99.90;;;;;;5044074;28;20021;-67
2023/12/04 08:15:39;;;;;;;1588.35;999.90;;;30.20;99.90;;;;;;5043248;28;20032;-67
2023/12/04 08:18:05;;;;;;;1585.28;999.90;;;30.20;99.90;;;;;;5042621;28;20494;-67
2023/12/04 08:20:32;;;;;;;1582.68;999.90;;;30.20;99.90;;;;;;5044191;28;20479;-68
2023/12/04 08:22:59;;;;;;;1603.03;999.90;;;30.20;99.90;;;;;;5042959;28;20093;-67
2023/12/04 08:25:26;;;;;;;1598.72;999.90;;;30.20;99.90;;;;;;5042568;28;20074;-64
2023/12/04 08:27:52;;;;;;;1558.35;999.90;;;30.20;99.90;;;;;;5044360;28;20257;-66
2023/12/04 08:30:19;;;;;;;1561.88;999.90;;;30.20;99.90;;;;;;5043070;28;20093;-68
2023/12/04 08:32:45;;;;;;;1590.93;999.90;;;30.20;99.90;;;;;;5042505;28;20376;-71
2023/12/04 08:35:12;;;;;;;1593.75;999.90;;;30.20;99.90;;;;;;5038170;28;20025;-71
2023/12/04 08:37:39;;;;;;;1596.20;999.90;;;30.20;99.90;;;;;;5042926;28;20495;-67
2023/12/04 08:40:08;;;;;;;1592.30;999.90;;;30.10;99.90;;;;;;5042317;28;20060;-70
2023/12/04 08:42:34;;;;;;;1596.30;999.90;;;30.10;99.90;;;;;;5039698;28;20056;-71
2023/12/04 08:45:01;;;;;;;1587.32;999.90;;;30.20;99.90;;;;;;5043153;28;20013;-69
2023/12/04 08:47:27;;;;;;;1574.95;999.90;;;30.10;99.90;;;;;;5044200;28;20048;-70
2023/12/04 08:49:54;;;;;;;1589.70;999.90;;;30.20;99.90;;;;;;5039600;28;20074;-69
2023/12/04 08:52:20;;;;;;;1588.30;999.90;;;30.10;99.90;;;;;;5043088;28;20017;-69
2023/12/04 08:54:47;;;;;;;1598.32;999.90;;;30.10;99.90;;;;;;5043760;28;20036;-70
2023/12/04 08:57:14;;;;;;;1562.88;999.90;;;30.10;99.90;;;;;;5038520;28;20032;-66
2023/12/04 08:59:41;;;;;;;1562.53;999.90;;;30.10;99.90;;;;;;5033175;28;20391;-66
2023/12/04 09:02:08;;;;;;;1608.97;999.90;;;30.10;99.90;;;;;;5033290;28;20022;-66
2023/12/04 09:04:34;;;;;;;1589.18;999.90;;;30.10;99.90;;;;;;5033061;28;20546;-63
2023/12/04 09:07:01;;;;;;;1626.15;999.90;;;30.10;99.90;;;;;;5035834;28;20028;-67
2023/12/04 09:09:27;;;;;;;1610.53;999.90;;;30.00;99.90;;;;;;5042187;28;20014;-65
2023/12/04 09:11:54;;;;;;;1595.63;999.90;;;30.10;99.90;;;;;;5042214;28;20037;-64
2023/12/04 09:14:20;;;;;;;1595.88;999.90;;;30.00;99.90;;;;;;5041859;28;20017;-66
2023/12/04 09:16:47;;;;;;;1489.28;999.90;;;30.00;99.90;;;;;;5043316;28;20021;-66
2023/12/04 09:19:14;;;;;;;1573.10;999.90;;;30.00;99.90;;;;;;5042433;28;20026;-67
2023/12/04 09:21:40;;;;;;;1577.53;999.90;;;30.00;99.90;;;;;;5041480;28;20412;-65
2023/12/04 09:24:07;;;;;;;1580.53;999.90;;;30.00;99.90;;;;;;5043402;28;20422;-65
2023/12/04 09:26:33;;;;;;;1599.68;999.90;;;30.00;99.90;;;;;;5035802;28;20029;-67
2023/12/04 09:29:00;;;;;;;1589.22;999.90;;;30.00;99.90;;;;;;5033266;28;20108;-65
2023/12/04 09:31:26;;;;;;;1568.93;999.90;;;30.00;99.90;;;;;;5038799;28;20033;-65
2023/12/04 09:33:53;;;;;;;1587.28;999.90;;;30.00;99.90;;;;;;5042660;28;20037;-65
2023/12/04 09:36:19;;;;;;;1589.65;999.90;;;30.00;99.90;;;;;;5051246;28;20032;-69
2023/12/04 09:38:46;;;;;;;1599.03;999.90;;;30.00;99.90;;;;;;5056680;28;20017;-71
2023/12/04 09:41:14;;;;;;;1587.72;999.90;;;30.00;99.90;;;;;;5053822;28;20166;-69
2023/12/04 09:43:41;;;;;;;1602.50;999.90;;;30.00;99.90;;;;;;5055868;28;20036;-69
2023/12/04 09:46:09;;;;;;;1599.85;999.90;;;30.00;99.90;;;;;;5056277;28;20025;-70
2023/12/04 09:48:36;;;;;;;1614.63;999.90;;;30.00;99.90;;;;;;5056184;28;20029;-70
2023/12/04 09:51:03;;;;;;;1614.65;999.90;;;29.90;99.90;;;;;;5038474;28;20514;-70
2023/12/04 09:53:32;;;;;;;1583.80;999.90;;;29.90;99.90;;;;;;5056059;28;20024;-68
2023/12/04 09:56:03;;;;;;;1579.90;999.90;;;29.90;99.90;;;;;;5056050;28;20025;-69
2023/12/04 09:58:32;;;;;;;1596.25;999.90;;;29.90;99.90;;;;;;5038336;28;20467;-69
2023/12/04 10:01:01;;;;;;;1601.45;999.90;;;29.90;99.90;;;;;;5055969;28;20021;-69
2023/12/04 10:03:29;;;;;;;1587.97;999.90;;;29.90;99.90;;;;;;5055794;28;20083;-69
2023/12/04 10:05:56;;;;;;;1580.55;999.90;;;29.90;99.90;;;;;;5042643;28;20060;-69
2023/12/04 10:08:23;;;;;;;1601.10;999.90;;;29.90;99.90;;;;;;5018504;28;20017;-68
2023/12/04 10:10:49;;;;;;;1611.70;999.90;;;29.80;99.90;;;;;;5031967;28;20411;-68
2023/12/04 10:13:16;;;;;;;1587.65;999.90;;;29.80;99.90;;;;;;5016237;28;20021;-67
2023/12/04 10:15:49;;;;;;;1603.50;999.90;;;29.80;99.90;;;;;;5016169;28;20113;-67
2023/12/04 10:18:36;;;;;;;1585.68;999.90;;;29.80;99.90;;;;;;5033758;28;20072;-67
2023/12/04 10:21:04;;;;;;;1584.85;999.90;;;29.80;99.90;;;;;;5036019;28;20057;-67
2023/12/04 10:23:42;;;;;;;1519.95;999.90;;;29.80;99.90;;;;;;5035543;28;20025;-67
2023/12/04 10:26:09;;;;;;;1596.38;999.90;;;29.80;99.90;;;;;;5035157;28;20476;-67
2023/12/04 10:28:36;;;;;;;1583.63;999.90;;;29.70;99.90;;;;;;5035516;28;20444;-67
2023/12/04 10:31:06;;;;;;;1587.25;999.90;;;29.70;99.90;;;;;;5034275;28;20061;-70
2023/12/04 10:33:33;;;;;;;1589.20;999.90;;;29.70;99.90;;;;;;5035571;28;20043;-67
2023/12/04 10:35:59;;;;;;;1574.38;999.90;;;29.70;99.90;;;;;;5035241;28;20034;-67
2023/12/04 10:38:27;;;;;;;1584.80;999.90;;;29.70;99.90;;;;;;5027623;28;20499;-72
2023/12/04 10:40:54;;;;;;;1582.95;999.90;;;29.60;99.90;;;;;;5015773;28;20044;-67
2023/12/04 10:43:24;;;;;;;1600.88;999.90;;;29.70;99.90;;;;;;5022365;28;20407;-67
2023/12/04 10:45:51;;;;;;;1609.82;999.90;;;29.60;99.90;;;;;;5016808;28;20461;-68
2023/12/04 10:48:19;;;;;;;1594.07;999.90;;;29.60;99.90;;;;;;5015492;28;20052;-68
2023/12/04 10:50:47;;;;;;;1585.45;999.90;;;29.60;99.90;;;;;;5015245;28;20108;-67
2023/12/04 10:53:15;;;;;;;1602.40;999.90;;;29.60;99.90;;;;;;5037620;28;20119;-66
2023/12/04 10:55:44;;;;;;;1593.45;999.90;;;29.60;99.90;;;;;;5052065;28;20026;-67
2023/12/04 10:58:15;;;;;;;1607.63;999.90;;;29.60;99.90;;;;;;5052101;28;20074;-66
2023/12/04 11:00:45;;;;;;;1598.85;999.90;;;29.50;99.90;;;;;;5046256;28;20053;-66
2023/12/04 11:03:17;;;;;;;1605.75;999.90;;;29.50;99.90;;;;;;5043123;28;20028;-66
2023/12/04 11:05:45;;;;;;;1605.28;999.90;;;29.50;99.90;;;;;;5045690;28;20119;-65
2023/12/04 11:08:17;;;;;;;1581.75;999.90;;;29.40;99.90;;;;;;5044057;28;20451;-65
2023/12/04 11:10:49;;;;;;;;;;;29.40;99.90;;;;;;5043606;28;20054;-66
2023/12/04 11:13:21;;;;;;;1591.88;999.90;;;29.40;99.90;;;;;;5044766;28;19905;-67
2023/12/04 11:15:52;;;;;;;1593.32;999.90;;;29.30;99.90;;;;;;5044086;28;20028;-65
2023/12/04 11:18:24;;;;;;;1598.53;999.90;;;29.30;99.90;;;;;;5037656;28;20431;-66
2023/12/04 11:20:58;;;;;;;1575.80;999.90;;;29.30;99.90;;;;;;5035039;28;20548;-66
2023/12/04 11:23:26;;;;;;;1590.30;999.90;;;29.30;99.90;;;;;;5035114;28;20040;-66
2023/12/04 11:25:54;;;;;;;1593.05;999.90;;;29.30;99.90;;;;;;5035230;28;20025;-67
2023/12/04 11:28:21;;;;;;;1582.75;999.90;;;29.30;99.90;;;;;;5044764;28;20431;-66
2023/12/04 11:30:49;;;;;;;1573.47;999.90;;;29.20;99.90;;;;;;5042969;28;20468;-64
2023/12/04 11:33:17;;;;;;;1593.22;999.90;;;29.30;99.90;;;;;;5043771;28;20033;-68
2023/12/04 11:35:45;;;;;;;1568.20;999.90;;;29.20;99.90;;;;;;5044476;28;20402;-67
2023/12/04 11:38:15;;;;;;;1580.97;999.90;;;29.20;99.90;;;;;;5040889;28;20480;-67
2023/12/04 11:40:43;;;;;;;1586.43;999.90;;;29.20;99.90;;;;;;5034269;28;20027;-67
2023/12/04 11:43:32;;;;;;;1577.95;999.90;;;29.20;99.90;;;;;;5036608;28;20400;-65
2023/12/04 11:46:25;;;;;;;1595.20;999.90;;;29.20;99.90;;;;;;5034129;28;20014;-67
2023/12/04 11:48:55;;;;;;;1590.45;999.90;;;29.10;99.90;;;;;;5033755;28;20025;-67
2023/12/04 11:51:47;;;;;;;1599.63;999.90;;;29.10;99.90;;;;;;5033567;28;20515;-67
2023/12/04 11:54:19;;;;;;;1603.93;999.90;;;29.10;99.90;;;;;;5033163;28;20029;-67
2023/12/04 11:57:08;;;;;;;1583.45;999.90;;;29.10;99.90;;;;;;5034034;28;20492;-66
2023/12/04 11:59:38;;;;;;;1590.55;999.90;;;29.10;99.90;;;;;;5033364;28;20383;-66
2023/12/04 12:02:08;;;;;;;1580.55;999.90;;;29.10;99.90;;;;;;5039075;28;20083;-66